Time;durP1;ratioP1;P1;durP2;ratioP2;P2;SDS_P1;SDS_P2;PMS_P1;PMS_P2;Temp;Humidity;BMP_temperature;BMP_pressure;BME280_temperature;BME280_humidity;BME280_pressure;Samples;Min_cycle;Max_cycle;Signal;HPM_P1;HPM_P2
2021/11/04 00:00:06;;;;;;;44.55;28.83;;;;;;;10.25;72.06;98929.34;5077377;28;20060;-86
2021/11/04 00:02:33;;;;;;;44.10;28.50;;;;;;;10.21;72.04;98924.84;5077549;28;20389;-86
2021/11/04 00:05:01;;;;;;;45.05;28.23;;;;;;;10.04;72.18;98926.69;5077083;28;20057;-87
2021/11/04 00:07:28;;;;;;;40.53;27.60;;;;;;;10.09;72.49;98928.44;5077375;28;20044;-86
2021/11/04 00:09:55;;;;;;;41.83;28.50;;;;;;;10.13;72.26;98924.59;5077523;28;20048;-86
2021/11/04 00:12:23;;;;;;;43.05;26.90;;;;;;;10.19;72.16;98927.16;5077440;28;20059;-86
2021/11/04 00:14:51;;;;;;;41.33;28.20;;;;;;;10.19;71.67;98927.16;5077452;28;20123;-86
2021/11/04 00:17:19;;;;;;;41.30;27.63;;;;;;;10.26;71.75;98928.16;5076511;28;20048;-86
2021/11/04 00:19:47;;;;;;;41.70;27.50;;;;;;;10.23;72.03;98928.88;5076029;28;20067;-86
2021/11/04 00:22:14;;;;;;;43.30;28.00;;;;;;;10.27;72.01;98931.78;5076641;28;20056;-86
2021/11/04 00:24:42;;;;;;;44.75;28.98;;;;;;;10.25;72.56;98929.34;5082857;28;20048;-86
2021/11/04 00:27:09;;;;;;;43.65;28.92;;;;;;;10.33;72.03;98922.88;5097404;28;20059;-86
2021/11/04 00:29:37;;;;;;;45.05;28.50;;;;;;;10.40;71.91;98927.03;5084802;28;20414;-86
2021/11/04 00:32:05;;;;;;;44.10;29.38;;;;;;;10.41;71.12;98926.66;5056356;28;20508;-86
2021/11/04 00:34:36;;;;;;;44.38;29.67;;;;;;;10.38;71.31;98932.94;5073214;28;20048;-86
2021/11/04 00:37:04;;;;;;;48.80;30.30;;;;;;;10.32;71.73;98928.78;5076242;28;20052;-87
2021/11/04 00:39:34;;;;;;;49.53;30.90;;;;;;;10.33;71.66;98938.72;5076413;28;20056;-86
2021/11/04 00:42:01;;;;;;;51.13;31.08;;;;;;;10.30;71.30;98939.44;5075863;28;20525;-87
2021/11/04 00:44:29;;;;;;;47.65;31.15;;;;;;;10.30;71.91;98940.25;5075408;28;20505;-86
2021/11/04 00:46:56;;;;;;;49.33;31.08;;;;;;;10.30;71.48;98934.69;5076503;28;20059;-87
2021/11/04 00:49:23;;;;;;;45.42;29.33;;;;;;;10.29;71.63;98937.78;5075421;28;20056;-87
2021/11/04 00:51:53;;;;;;;47.70;31.48;;;;;;;10.25;71.42;98934.09;5076008;28;20060;-87
2021/11/04 00:54:21;;;;;;;48.72;30.55;;;;;;;10.19;71.41;98932.72;5075549;28;20055;-87
2021/11/04 00:56:48;;;;;;;50.08;31.75;;;;;;;10.11;71.79;98929.69;5075709;28;20052;-87
2021/11/04 00:59:15;;;;;;;53.35;32.58;;;;;;;10.10;71.65;98936.44;5075879;28;20044;-87
2021/11/04 01:01:42;;;;;;;52.97;34.70;;;;;;;10.07;71.69;98931.53;5075509;28;20059;-87
2021/11/04 02:03:29;;;;;;;68.97;39.30;;;;;;;10.06;72.15;98910.47;5098357;23;20059;-56
2021/11/04 02:06:03;;;;;;;72.75;41.22;;;;;;;10.07;71.94;98909.28;5072525;28;20064;-57
2021/11/04 02:08:37;;;;;;;79.57;41.83;;;;;;;10.07;71.89;98928.75;5072220;28;20060;-56
2021/11/04 02:11:11;;;;;;;77.15;42.70;;;;;;;10.10;71.98;98936.44;5072174;28;20064;-54
2021/11/04 02:13:49;;;;;;;75.82;42.08;;;;;;;10.11;72.21;98932.47;5085697;28;20052;-57
2021/11/04 02:16:18;;;;;;;77.90;42.63;;;;;;;10.15;72.49;98935.38;5092340;28;20055;-56
2021/11/04 02:18:49;;;;;;;70.63;39.05;;;;;;;10.15;72.57;98929.81;5091603;28;20048;-56
2021/11/04 02:21:25;;;;;;;69.93;39.00;;;;;;;10.22;72.23;98932.00;5081472;28;20648;-55
2021/11/04 02:24:00;;;;;;;66.93;36.05;;;;;;;10.25;71.97;98926.56;5087301;28;20504;-55
2021/11/04 02:26:31;;;;;;;61.17;35.83;;;;;;;10.27;71.89;98910.31;5092495;28;20059;-54
2021/11/04 02:28:58;;;;;;;61.97;36.53;;;;;;;10.30;71.75;98906.06;5091630;28;20063;-55
2021/11/04 02:31:28;;;;;;;61.53;36.63;;;;;;;10.31;71.69;98905.72;5092362;28;20070;-55
2021/11/04 02:33:56;;;;;;;75.25;42.58;;;;;;;10.30;71.71;98894.91;5091967;28;20059;-57
2021/11/04 02:36:25;;;;;;;72.85;40.00;;;;;;;10.29;71.73;98907.16;5092656;28;20517;-56
2021/11/04 02:38:54;;;;;;;74.00;42.40;;;;;;;10.29;71.53;98908.03;5092621;28;20422;-56
2021/11/04 02:41:22;;;;;;;70.38;39.30;;;;;;;10.33;71.09;98916.47;5092613;28;20399;-57
2021/11/04 02:43:55;;;;;;;62.78;37.55;;;;;;;10.31;71.08;98918.78;5095024;28;20047;-54
2021/11/04 02:46:23;;;;;;;68.15;37.00;;;;;;;10.29;71.23;98916.38;5112286;28;20051;-56
2021/11/04 02:48:50;;;;;;;63.97;37.38;;;;;;;10.26;71.39;98913.44;5112690;28;20071;-56
2021/11/04 02:51:18;;;;;;;62.47;36.70;;;;;;;10.29;71.17;98915.50;5112411;28;20070;-57
2021/11/04 02:53:47;;;;;;;60.35;35.33;;;;;;;10.22;71.43;98906.97;5112431;28;20055;-57
2021/11/04 02:56:18;;;;;;;65.87;35.97;;;;;;;10.15;71.27;98916.69;5112305;28;20056;-54
2021/11/04 02:58:45;;;;;;;61.58;36.28;;;;;;;10.24;71.05;98921.34;5112818;28;20481;-56
2021/11/04 03:01:14;;;;;;;61.03;35.08;;;;;;;10.22;71.10;98923.66;5112625;28;20390;-57
2021/11/04 03:03:42;;;;;;;62.58;34.80;;;;;;;10.13;71.23;98924.59;5113420;28;20067;-56
2021/11/04 03:06:09;;;;;;;60.40;34.45;;;;;;;10.07;71.59;98914.84;5105676;28;20055;-55
2021/11/04 03:08:36;;;;;;;60.35;33.97;;;;;;;10.08;71.54;98924.84;5116554;28;20055;-57
2021/11/04 03:11:03;;;;;;;60.55;35.35;;;;;;;10.13;71.47;98935.72;5116444;28;20072;-56
2021/11/04 03:13:31;;;;;;;56.92;32.65;;;;;;;10.16;71.56;98936.97;5116003;28;20059;-57
2021/11/04 03:16:02;;;;;;;50.75;30.67;;;;;;;10.21;71.73;98935.97;5116423;28;20059;-57
2021/11/04 03:18:31;;;;;;;52.85;29.13;;;;;;;10.18;72.19;98943.00;5116263;28;20070;-57
2021/11/04 03:20:59;;;;;;;48.60;28.05;;;;;;;10.20;71.62;98945.44;5116629;28;20061;-54
2021/11/04 03:23:27;;;;;;;46.33;28.63;;;;;;;10.19;71.66;98944.66;5116271;28;20056;-54
2021/11/04 03:25:56;;;;;;;46.58;27.63;;;;;;;10.22;71.39;98949.50;5116062;28;20055;-55
2021/11/04 03:28:26;;;;;;;47.03;27.13;;;;;;;10.19;71.28;98943.84;5116392;28;20063;-55
2021/11/04 03:30:55;;;;;;;43.00;26.80;;;;;;;10.22;71.27;98949.50;5099310;28;20056;-54
2021/11/04 03:33:23;;;;;;;43.58;25.48;;;;;;;10.18;71.26;98940.22;5104541;28;20066;-54
2021/11/04 03:35:55;;;;;;;44.03;27.30;;;;;;;10.16;71.64;98940.59;5116408;28;20056;-55
2021/11/04 03:38:24;;;;;;;42.78;25.60;;;;;;;10.20;71.46;98939.88;5116065;28;20397;-54
2021/11/04 03:40:52;;;;;;;45.53;27.83;;;;;;;10.17;71.27;98935.84;5115699;28;20497;-56
2021/11/04 03:43:20;;;;;;;46.40;28.75;;;;;;;10.09;71.44;98940.34;5115896;28;20052;-54
2021/11/04 03:45:48;;;;;;;48.50;29.25;;;;;;;10.10;71.13;98941.16;5115696;28;20059;-54
2021/11/04 03:48:16;;;;;;;53.13;28.83;;;;;;;10.03;71.49;98941.75;5116414;28;20503;-56
2021/11/04 03:50:43;;;;;;;51.50;29.90;;;;;;;9.96;71.83;98939.56;5115871;28;20416;-54
2021/11/04 03:53:15;;;;;;;51.63;30.65;;;;;;;9.88;72.18;98936.91;5115289;28;20055;-54
2021/11/04 03:55:43;;;;;;;59.92;32.40;;;;;;;9.75;72.26;98934.09;5115449;28;20047;-56
2021/11/04 03:58:11;;;;;;;59.92;33.70;;;;;;;9.80;72.37;98938.63;5115521;28;20063;-56
2021/11/04 04:00:38;;;;;;;60.22;33.28;;;;;;;9.81;72.68;98942.25;5115270;28;20062;-55
2021/11/04 04:03:06;;;;;;;56.00;31.95;;;;;;;9.64;73.16;98946.84;5115136;28;20062;-56
2021/11/04 04:05:34;;;;;;;58.42;33.15;;;;;;;9.71;73.12;98944.28;5110562;28;20048;-54
2021/11/04 04:08:02;;;;;;;58.28;32.58;;;;;;;9.78;73.01;98943.72;5095072;28;20059;-54
2021/11/04 04:10:32;;;;;;;61.33;32.03;;;;;;;9.74;72.83;98945.56;5095195;28;20413;-56
2021/11/04 04:12:59;;;;;;;;;;;;;;;9.68;72.82;98941.38;5099013;28;20058;-56
2021/11/04 04:15:27;;;;;;;60.08;32.75;;;;;;;9.81;72.57;98950.56;5115163;28;20301;-56
2021/11/04 04:17:55;;;;;;;55.75;31.40;;;;;;;9.80;72.50;98955.31;5115879;28;20048;-55
2021/11/04 04:20:22;;;;;;;62.25;32.15;;;;;;;9.80;72.87;98954.50;5114740;28;20062;-54
2021/11/04 04:22:50;;;;;;;50.50;28.52;;;;;;;9.74;72.41;98959.47;5114830;28;20066;-56
2021/11/04 04:25:17;;;;;;;55.83;30.80;;;;;;;9.75;72.32;98964.69;5114631;28;20051;-56
2021/11/04 04:27:46;;;;;;;55.17;29.88;;;;;;;9.77;72.39;98977.44;5115030;28;20062;-54
2021/11/04 04:30:13;;;;;;;54.08;31.80;;;;;;;9.83;72.24;98985.22;5114871;28;20051;-54
2021/11/04 04:32:41;;;;;;;59.90;31.52;;;;;;;9.81;72.83;98989.50;5114025;28;20051;-55
2021/11/04 04:35:08;;;;;;;54.58;30.75;;;;;;;9.77;72.53;99002.47;5114923;28;20078;-56
2021/11/04 04:37:35;;;;;;;57.15;31.00;;;;;;;9.86;72.51;99003.97;5115192;28;20500;-56
2021/11/04 04:40:02;;;;;;;51.65;30.85;;;;;;;9.90;72.35;99006.88;5114863;28;20056;-54
2021/11/04 04:42:30;;;;;;;53.60;29.08;;;;;;;9.91;72.16;99006.56;5114423;28;20059;-56
2021/11/04 04:44:59;;;;;;;51.72;28.90;;;;;;;9.92;71.95;99007.34;5115120;28;20058;-56
2021/11/04 04:47:26;;;;;;;54.23;30.83;;;;;;;9.91;72.06;99006.56;5114324;28;20055;-55
2021/11/04 04:49:58;;;;;;;54.30;30.10;;;;;;;9.93;72.10;99014.53;5114851;28;20067;-57
2021/11/04 04:52:26;;;;;;;51.88;30.30;;;;;;;9.94;72.10;99005.84;5114098;28;20059;-54
2021/11/04 04:54:53;;;;;;;54.45;30.98;;;;;;;9.97;71.87;99015.47;5114410;28;20417;-55
2021/11/04 04:57:23;;;;;;;59.45;31.83;;;;;;;9.94;71.69;99022.53;5114354;28;20060;-56
2021/11/04 04:59:50;;;;;;;;;;;;;;;9.81;71.99;99018.13;5114835;28;20059;-54
2021/11/04 05:02:19;;;;;;;55.13;31.45;;;;;;;9.87;72.10;99010.34;5114491;28;19920;-54
2021/11/04 05:04:47;;;;;;;55.53;31.52;;;;;;;9.93;71.53;99022.88;5114686;28;20047;-56
2021/11/04 05:07:14;;;;;;;52.35;29.17;;;;;;;9.90;71.78;99016.03;5113860;28;20058;-56
2021/11/04 05:09:42;;;;;;;49.15;27.95;;;;;;;9.91;71.97;99022.41;5114100;28;20055;-55
2021/11/04 05:12:10;;;;;;;51.28;29.13;;;;;;;9.90;71.50;99032.72;5113395;28;20452;-56
2021/11/04 05:14:38;;;;;;;51.58;28.67;;;;;;;9.77;71.75;99019.97;5113431;28;20059;-54
2021/11/04 05:17:05;;;;;;;52.38;27.98;;;;;;;9.84;71.50;99027.75;5113896;28;20386;-53
2021/11/04 05:19:34;;;;;;;49.08;27.00;;;;;;;9.86;71.30;99020.66;5114049;28;20064;-54
2021/11/04 05:22:01;;;;;;;47.65;26.10;;;;;;;9.88;70.90;99018.34;5112960;28;20051;-56
2021/11/04 05:24:33;;;;;;;46.78;26.95;;;;;;;9.87;71.00;99021.47;5112915;28;20055;-56
2021/11/04 05:27:01;;;;;;;50.35;28.63;;;;;;;9.78;71.37;99021.56;5113550;28;20086;-53
2021/11/04 05:29:30;;;;;;;50.30;27.35;;;;;;;9.79;71.33;99026.00;5113834;28;20409;-56
2021/11/04 05:31:58;;;;;;;51.53;28.77;;;;;;;9.79;71.14;99025.19;5113539;28;20172;-55
2021/11/04 05:34:25;;;;;;;50.28;27.73;;;;;;;9.74;71.56;99026.19;5113763;28;20059;-56
2021/11/04 05:36:54;;;;;;;50.08;28.48;;;;;;;9.66;71.76;99027.94;5113586;28;20077;-55
2021/11/04 05:39:21;;;;;;;53.50;29.93;;;;;;;9.68;71.80;99024.78;5113453;28;20370;-56
2021/11/04 05:41:49;;;;;;;49.78;28.70;;;;;;;9.49;72.28;99026.16;5113226;28;20488;-54
2021/11/04 05:44:16;;;;;;;54.15;29.58;;;;;;;9.61;71.96;99030.91;5113472;28;20406;-57
2021/11/04 05:46:43;;;;;;;53.55;29.13;;;;;;;9.56;72.04;99025.59;5113425;28;20059;-55
2021/11/04 05:49:11;;;;;;;55.97;28.98;;;;;;;9.55;71.96;99023.94;5113383;28;20405;-54
2021/11/04 05:51:40;;;;;;;53.40;29.52;;;;;;;9.58;72.13;99020.50;5113570;28;20390;-56
2021/11/04 05:54:09;;;;;;;57.45;29.58;;;;;;;9.63;71.83;99019.47;5111549;28;20055;-55
2021/11/04 05:56:36;;;;;;;51.75;29.50;;;;;;;9.63;72.12;99028.63;5113638;28;20055;-55
2021/11/04 05:59:03;;;;;;;55.45;29.83;;;;;;;9.64;71.75;99019.13;5113376;28;20059;-54
2021/11/04 06:01:31;;;;;;;53.83;29.60;;;;;;;9.58;72.03;99012.16;5113125;28;20444;-56
2021/11/04 06:03:58;;;;;;;56.10;29.33;;;;;;;9.63;71.96;99017.50;5107345;28;20047;-54
2021/11/04 06:06:26;;;;;;;54.15;29.77;;;;;;;9.65;71.61;99017.97;5104463;28;20056;-54
2021/11/04 06:08:53;;;;;;;62.30;30.90;;;;;;;9.62;71.99;99015.06;5113251;28;20055;-55
2021/11/04 06:11:22;;;;;;;55.88;29.35;;;;;;;9.58;71.60;99023.28;5111184;28;20059;-55
2021/11/04 06:13:49;;;;;;;55.87;30.53;;;;;;;9.61;71.55;99017.03;5111794;28;20051;-53
2021/11/04 06:16:16;;;;;;;52.83;29.42;;;;;;;9.61;71.66;99019.81;5111045;28;20051;-54
2021/11/04 06:18:44;;;;;;;56.13;30.08;;;;;;;9.54;71.67;99025.94;5112131;28;20070;-54
2021/11/04 06:21:13;;;;;;;52.20;28.67;;;;;;;9.62;71.47;99026.19;5111028;28;20074;-56
2021/11/04 06:23:40;;;;;;;53.60;28.83;;;;;;;9.62;71.37;99031.75;5113293;28;20055;-56
2021/11/04 06:26:08;;;;;;;53.08;28.25;;;;;;;9.63;71.37;99034.16;5112399;28;20048;-56
2021/11/04 06:28:36;;;;;;;52.88;28.67;;;;;;;9.65;71.19;99034.63;5112406;28;20421;-56
2021/11/04 06:31:04;;;;;;;52.60;27.83;;;;;;;9.65;70.81;99031.06;5112805;28;20063;-54
2021/11/04 06:33:31;;;;;;;51.60;28.65;;;;;;;9.56;71.04;99033.94;5112476;28;20059;-55
2021/11/04 06:35:58;;;;;;;51.92;28.17;;;;;;;9.60;71.04;99025.72;5109057;28;20354;-56
2021/11/04 06:38:26;;;;;;;52.67;27.15;;;;;;;9.57;71.27;99029.19;5112413;28;20052;-56
2021/11/04 06:40:53;;;;;;;50.28;27.52;;;;;;;9.51;71.39;99028.56;5112338;28;20059;-56
2021/11/04 06:43:21;;;;;;;50.83;26.70;;;;;;;9.49;71.35;99028.09;5112359;28;20477;-56
2021/11/04 06:45:51;;;;;;;47.58;26.77;;;;;;;9.55;71.22;99037.84;5112163;28;20058;-56
2021/11/04 06:48:23;;;;;;;50.85;27.40;;;;;;;9.52;71.34;99039.34;5112381;28;20421;-56
2021/11/04 06:50:52;;;;;;;53.05;27.52;;;;;;;9.55;71.36;99046.19;5109831;28;20071;-56
2021/11/04 06:53:25;;;;;;;54.17;28.30;;;;;;;9.52;71.79;99050.47;5111385;28;20062;-54
2021/11/04 06:55:54;;;;;;;52.45;26.33;;;;;;;9.57;71.46;99043.88;5110980;28;20048;-54
2021/11/04 06:58:25;;;;;;;50.03;27.50;;;;;;;9.62;70.75;99042.88;5110697;28;20059;-54
2021/11/04 07:00:54;;;;;;;49.90;26.88;;;;;;;9.58;70.63;99045.53;5110301;28;20059;-53
2021/11/04 07:03:24;;;;;;;48.30;26.02;;;;;;;9.57;70.76;99040.28;5110423;28;20052;-54
2021/11/04 07:05:56;;;;;;;49.97;25.80;;;;;;;9.58;70.58;99045.53;5106470;28;20055;-54
2021/11/04 07:08:24;;;;;;;46.67;25.67;;;;;;;9.63;70.20;99048.06;5109895;28;20064;-54
2021/11/04 07:10:57;;;;;;;47.00;25.38;;;;;;;9.57;70.67;99045.84;5100159;28;20067;-56
2021/11/04 07:13:26;;;;;;;44.88;25.85;;;;;;;9.61;70.53;99053.16;5102938;28;20056;-56
2021/11/04 07:15:58;;;;;;;49.15;26.13;;;;;;;9.66;70.43;99060.47;5110762;28;20410;-56
2021/11/04 07:18:26;;;;;;;46.95;25.38;;;;;;;9.69;70.47;99057.03;5109270;28;20410;-56
2021/11/04 07:20:58;;;;;;;49.83;26.65;;;;;;;9.75;70.47;99064.78;5111360;28;20494;-55
2021/11/04 07:23:38;;;;;;;45.47;25.13;;;;;;;9.78;69.82;99062.47;5111919;28;20063;-56
2021/11/04 07:26:07;;;;;;;46.40;26.35;;;;;;;9.77;69.86;99064.47;5110323;28;20056;-55
2021/11/04 07:28:41;;;;;;;47.70;26.17;;;;;;;9.79;69.54;99064.13;5110683;28;20391;-57
2021/11/04 07:31:13;;;;;;;43.38;25.02;;;;;;;9.75;69.44;99078.69;5111666;28;20398;-56
2021/11/04 07:33:45;;;;;;;44.17;23.98;;;;;;;9.81;69.46;99084.88;5111785;28;20059;-57
2021/11/04 07:36:16;;;;;;;44.65;23.77;;;;;;;9.73;69.24;99085.75;5112202;28;20059;-57
2021/11/04 07:38:45;;;;;;;42.63;25.05;;;;;;;9.81;69.28;99090.44;5112234;28;20425;-55
2021/11/04 07:41:13;;;;;;;44.30;26.05;;;;;;;9.79;69.33;99089.94;5111785;28;20493;-56
2021/11/04 07:43:40;;;;;;;43.05;26.00;;;;;;;9.83;69.30;99096.47;5111833;28;20544;-56
2021/11/04 07:46:08;;;;;;;41.85;25.13;;;;;;;9.86;69.43;99103.28;5112045;28;20055;-55
2021/11/04 07:48:37;;;;;;;43.63;25.02;;;;;;;9.93;69.04;99103.53;5114500;28;20047;-57
2021/11/04 07:51:04;;;;;;;48.83;26.85;;;;;;;9.93;68.93;99112.72;5113443;28;20052;-57
2021/11/04 07:53:32;;;;;;;49.10;27.33;;;;;;;10.02;68.60;99118.19;5110828;28;20481;-54
2021/11/04 07:55:59;;;;;;;52.58;27.45;;;;;;;10.00;68.86;99119.69;5108030;28;20051;-55
2021/11/04 07:58:26;;;;;;;47.38;26.55;;;;;;;10.08;68.65;99124.31;5109639;28;20063;-55
2021/11/04 08:00:53;;;;;;;40.85;24.15;;;;;;;10.11;68.11;99121.66;5108681;28;20421;-56
2021/11/04 08:03:21;;;;;;;44.97;25.27;;;;;;;10.20;67.94;99129.09;5110346;28;20067;-56
2021/11/04 08:29:35;;;;;;;47.63;25.83;;;;;;;10.38;66.79;99136.13;3863819;28;21905;-77
2021/11/04 08:32:04;;;;;;;45.97;26.13;;;;;;;10.33;66.83;99144.69;5041485;28;20054;-79
2021/11/04 08:34:32;;;;;;;49.33;28.48;;;;;;;10.34;67.03;99151.88;5038224;28;20057;-81
2021/11/04 08:37:03;;;;;;;47.65;27.02;;;;;;;10.49;66.59;99158.75;5039464;28;20474;-82
2021/11/04 08:39:31;;;;;;;51.13;29.52;;;;;;;10.54;66.49;99167.69;5039735;28;20057;-83
2021/11/04 08:42:01;;;;;;;47.88;27.25;;;;;;;10.63;66.49;99175.13;5038828;28;20069;-82
2021/11/04 08:44:34;;;;;;;42.42;25.60;;;;;;;10.59;66.19;99168.63;5039559;28;20057;-84
2021/11/04 08:47:06;;;;;;;43.55;26.13;;;;;;;10.66;65.62;99161.31;5040694;28;20061;-83
2021/11/04 08:49:33;;;;;;;43.75;26.42;;;;;;;10.63;65.76;99161.22;5041136;28;20076;-83
2021/11/04 08:52:05;;;;;;;47.75;27.02;;;;;;;10.54;65.99;99167.69;5041065;28;20399;-82
2021/11/04 08:54:32;;;;;;;46.85;26.95;;;;;;;10.74;65.79;99167.94;5041027;28;20057;-83
2021/11/04 08:57:00;;;;;;;50.13;27.50;;;;;;;10.70;65.42;99169.78;5038714;28;20054;-80
2021/11/04 08:59:28;;;;;;;45.83;27.17;;;;;;;10.76;64.69;99168.41;5040091;28;20053;-82
2021/11/04 09:01:57;;;;;;;51.85;28.63;;;;;;;10.68;65.08;99177.69;5031539;28;20057;-82
2021/11/04 09:04:25;;;;;;;47.90;26.95;;;;;;;10.48;65.52;99173.84;5046322;28;20080;-82
2021/11/04 09:06:53;;;;;;;44.22;25.58;;;;;;;10.63;65.39;99177.91;5053390;28;20437;-82
2021/11/04 09:09:21;;;;;;;47.78;26.13;;;;;;;10.50;65.29;99183.47;5055894;28;20065;-85
2021/11/04 09:11:48;;;;;;;45.58;25.70;;;;;;;10.69;65.37;99184.88;5045673;28;20053;-81
2021/11/04 09:14:15;;;;;;;42.28;23.98;;;;;;;10.59;65.10;99191.72;5045871;28;20053;-81
2021/11/04 09:16:43;;;;;;;45.00;24.20;;;;;;;10.63;64.71;99191.84;5051154;28;20056;-82
2021/11/04 09:19:12;;;;;;;41.50;24.30;;;;;;;10.67;64.84;99192.78;5054650;28;20044;-82
2021/11/04 09:21:40;;;;;;;48.95;26.42;;;;;;;10.61;64.95;99196.94;5046001;28;20064;-82
2021/11/04 09:24:07;;;;;;;46.13;26.15;;;;;;;10.53;65.21;99202.25;5052529;28;20068;-82
2021/11/04 09:26:36;;;;;;;41.88;24.40;;;;;;;10.59;65.09;99218.75;5054560;28;20068;-82
2021/11/04 09:29:05;;;;;;;41.38;24.73;;;;;;;10.55;64.92;99213.84;5050093;28;20057;-82
2021/11/04 09:31:32;;;;;;;41.17;24.33;;;;;;;10.55;65.10;99221.41;5067872;28;20079;-82
2021/11/04 09:33:59;;;;;;;41.97;24.17;;;;;;;10.52;65.12;99224.88;5065745;28;20060;-82
2021/11/04 09:36:30;;;;;;;44.72;25.63;;;;;;;10.50;64.81;99222.44;5062137;28;20060;-82
2021/11/04 09:38:58;;;;;;;44.10;25.52;;;;;;;10.36;65.57;99228.31;5069562;28;20057;-81
2021/11/04 09:41:26;;;;;;;42.03;24.38;;;;;;;10.15;65.84;99231.13;5069775;28;20063;-82
2021/11/04 09:43:57;;;;;;;37.85;22.52;;;;;;;9.95;66.90;99238.34;5066281;28;20067;-83
2021/11/04 09:46:25;;;;;;;40.95;23.40;;;;;;;10.08;66.02;99233.66;5071871;28;20056;-83
2021/11/04 09:48:53;;;;;;;41.60;23.77;;;;;;;10.26;65.41;99239.03;5070029;28;20076;-87
2021/11/04 09:51:21;;;;;;;39.78;22.63;;;;;;;10.18;65.97;99237.16;5074361;28;20052;-87
2021/11/04 09:53:50;;;;;;;37.75;22.75;;;;;;;10.02;65.95;99243.34;5070137;28;20053;-86
2021/11/04 09:56:19;;;;;;;39.15;21.95;;;;;;;10.22;65.79;99238.09;5074967;28;20048;-86
2021/11/04 09:58:48;;;;;;;38.30;21.23;;;;;;;10.29;64.92;99236.44;5071399;28;20053;-87
2021/11/04 10:01:21;;;;;;;38.00;21.13;;;;;;;10.36;64.69;99247.78;5074559;28;20053;-85
2021/11/04 10:03:49;;;;;;;38.08;22.58;;;;;;;10.36;64.83;99241.44;5072427;28;20060;-87
2021/11/04 10:06:23;;;;;;;37.20;21.23;;;;;;;10.39;65.04;99243.50;5065786;28;20502;-88
2021/11/04 10:08:54;;;;;;;40.10;22.15;;;;;;;10.44;65.05;99234.97;5069911;28;20394;-83
2021/11/04 10:11:22;;;;;;;39.13;22.30;;;;;;;10.48;64.92;99238.69;5074386;28;20067;-82
2021/11/04 10:13:50;;;;;;;41.47;22.10;;;;;;;10.57;64.92;99233.81;5063930;28;20061;-82
2021/11/04 10:16:19;;;;;;;37.25;22.15;;;;;;;10.55;65.02;99235.31;5065052;28;20447;-84
2021/11/04 10:18:50;;;;;;;43.88;22.48;;;;;;;10.62;64.99;99240.31;5070462;28;20060;-84
2021/11/04 10:21:24;;;;;;;38.63;22.30;;;;;;;10.54;65.27;99240.09;5060557;28;20061;-83
2021/11/04 10:23:53;;;;;;;39.60;22.35;;;;;;;10.73;65.17;99238.72;5064457;28;20052;-83
2021/11/04 10:26:23;;;;;;;38.90;21.67;;;;;;;10.74;65.09;99246.72;5071013;28;20052;-80
2021/11/04 10:28:58;;;;;;;40.22;22.48;;;;;;;10.77;64.72;99242.44;5063840;28;20052;-82
2021/11/04 10:31:25;;;;;;;37.33;20.73;;;;;;;10.93;64.08;99235.03;5057574;28;20391;-82
2021/11/04 10:33:55;;;;;;;33.22;18.38;;;;;;;10.99;63.80;99246.75;5066752;28;20053;-83
2021/11/04 10:36:23;;;;;;;;;;;;;;;10.99;63.73;99243.16;5055185;28;20060;-83
2021/11/04 10:38:54;;;;;;;36.92;20.92;;;;;;;11.04;63.44;99246.53;5067962;28;19920;-81
2021/11/04 10:41:24;;;;;;;37.30;20.67;;;;;;;11.07;64.07;99245.84;5065035;28;20445;-81
2021/11/04 10:43:54;;;;;;;39.72;21.65;;;;;;;11.08;63.80;99252.22;5072434;28;20052;-82
2021/11/04 10:46:22;;;;;;;38.45;20.95;;;;;;;10.89;64.10;99256.38;5065210;28;20060;-81
2021/11/04 10:48:57;;;;;;;42.42;23.08;;;;;;;10.58;65.40;99256.91;5072998;28;20078;-82
2021/11/04 10:51:24;;;;;;;37.10;21.98;;;;;;;10.86;64.59;99254.31;5064006;28;20056;-82
2021/11/04 10:53:58;;;;;;;42.78;22.15;;;;;;;10.84;64.64;99264.97;5066184;28;20055;-83
2021/11/04 10:56:26;;;;;;;40.40;22.27;;;;;;;10.61;65.67;99261.78;5063444;28;20064;-79
2021/11/04 10:58:55;;;;;;;37.33;21.75;;;;;;;10.84;64.97;99264.97;5061588;28;20052;-81
2021/11/04 11:01:29;;;;;;;38.83;23.33;;;;;;;10.82;64.94;99263.69;5072422;28;20059;-79
2021/11/04 11:04:03;;;;;;;38.65;21.63;;;;;;;10.66;65.27;99261.56;5066628;28;20052;-81
2021/11/04 11:06:34;;;;;;;45.22;22.92;;;;;;;10.41;66.87;99257.09;5061040;28;20051;-81
2021/11/04 11:09:06;;;;;;;36.92;21.80;;;;;;;10.67;66.12;99267.97;5060802;28;20056;-80
2021/11/04 11:11:35;;;;;;;35.55;20.42;;;;;;;10.97;65.68;99255.47;5074632;28;20063;-82
2021/11/04 11:14:02;;;;;;;37.50;20.08;;;;;;;11.10;65.15;99261.03;5063319;28;20398;-82
2021/11/04 11:16:30;;;;;;;37.88;19.50;;;;;;;11.17;64.67;99259.31;5070406;28;20663;-82
2021/11/04 11:19:01;;;;;;;36.25;20.27;;;;;;;10.99;64.60;99263.47;5072552;28;20052;-82
2021/11/04 11:21:51;;;;;;;40.38;22.27;;;;;;;10.92;64.92;99266.84;5061418;28;20048;-82
2021/11/04 11:24:24;;;;;;;38.40;21.20;;;;;;;11.15;64.53;99266.41;5072119;28;20053;-82
2021/11/04 11:26:52;;;;;;;40.50;21.58;;;;;;;11.13;64.42;99268.72;5063855;28;20062;-83
2021/11/04 11:29:20;;;;;;;39.35;22.08;;;;;;;11.20;63.83;99268.94;5068919;28;20045;-83
2021/11/04 11:31:49;;;;;;;45.38;22.70;;;;;;;11.30;63.74;99262.91;5075445;28;20052;-81
2021/11/04 11:34:23;;;;;;;46.63;22.13;;;;;;;11.18;63.92;99260.94;5071510;28;20479;-80
2021/11/04 11:37:13;;;;;;;45.65;23.25;;;;;;;10.97;64.57;99266.59;5069861;28;20063;-80
2021/11/04 11:39:45;;;;;;;47.58;24.60;;;;;;;11.38;64.26;99261.97;5062907;28;20057;-79
2021/11/04 11:42:19;;;;;;;45.83;23.73;;;;;;;11.65;63.61;99264.38;5066293;28;20056;-79
2021/11/04 11:44:53;;;;;;;47.10;25.05;;;;;;;11.58;63.20;99267.75;5068977;28;20525;-79
2021/11/04 11:47:34;;;;;;;51.35;28.23;;;;;;;11.58;63.30;99264.97;5065829;28;20465;-85
2021/11/04 11:50:22;;;;;;;47.95;25.23;;;;;;;11.72;63.50;99265.41;5065310;28;20055;-84
2021/11/04 11:52:52;;;;;;;47.80;25.52;;;;;;;11.64;63.05;99268.34;5069007;28;20498;-81
2021/11/04 11:55:24;;;;;;;;;;;;;;;11.12;64.33;99281.03;5072817;28;20056;-81
2021/11/04 11:58:18;;;;;;;52.50;25.52;;;;;;;11.62;63.37;99271.47;5071313;28;20432;-82
2021/11/04 12:00:55;;;;;;;49.15;24.95;;;;;;;11.72;63.43;99268.22;5081308;28;20045;-82
2021/11/04 12:03:46;;;;;;;48.08;26.75;;;;;;;11.78;63.19;99261.22;5074313;28;20428;-82
2021/11/04 12:06:50;;;;;;;49.83;26.20;;;;;;;11.76;63.13;99260.75;5082047;28;20054;-81
2021/11/04 12:09:47;;;;;;;47.05;24.88;;;;;;;11.74;62.70;99263.09;5073723;28;20458;-81
2021/11/04 12:12:47;;;;;;;47.75;26.33;;;;;;;11.84;63.01;99270.13;5028863;28;20064;-81
2021/11/04 12:15:16;;;;;;;51.15;24.50;;;;;;;11.85;62.62;99268.19;5082957;28;20055;-82
2021/11/04 12:18:12;;;;;;;51.60;26.05;;;;;;;12.00;62.45;99264.66;5077439;28;20052;-81
2021/11/04 12:20:52;;;;;;;43.97;24.63;;;;;;;11.93;62.66;99270.84;5074495;28;20056;-82
2021/11/04 12:23:19;;;;;;;45.78;25.75;;;;;;;11.63;63.49;99267.50;5093374;28;20055;-82
2021/11/04 12:25:48;;;;;;;49.45;26.25;;;;;;;12.04;62.27;99271.16;5083232;28;20059;-82
2021/11/04 12:28:17;;;;;;;46.90;24.23;;;;;;;12.28;61.53;99270.25;5079571;28;20052;-82
2021/11/04 12:30:45;;;;;;;43.75;23.45;;;;;;;12.55;60.73;99259.44;5071664;28;20068;-82
2021/11/04 12:33:14;;;;;;;44.50;24.20;;;;;;;12.72;60.37;99255.50;5082246;28;20063;-82
2021/11/04 12:35:44;;;;;;;42.33;24.25;;;;;;;13.02;59.46;99257.84;5058894;28;20064;-82
2021/11/04 12:38:16;;;;;;;41.90;23.88;;;;;;;12.87;59.71;99268.69;5076102;28;20532;-82
2021/11/04 12:40:44;;;;;;;43.97;25.77;;;;;;;12.77;59.96;99269.22;5064456;28;20052;-82
2021/11/04 12:43:12;;;;;;;44.50;24.88;;;;;;;12.60;60.81;99273.16;5066277;28;20063;-82
2021/11/04 12:45:45;;;;;;;45.78;25.25;;;;;;;12.90;59.81;99273.53;5063362;28;20061;-81
2021/11/04 12:48:17;;;;;;;48.80;26.83;;;;;;;12.99;59.25;99279.75;5076133;28;20057;-83
2021/11/04 12:50:45;;;;;;;49.80;28.27;;;;;;;13.02;58.60;99280.22;5074057;28;20060;-82
2021/11/04 12:53:13;;;;;;;49.30;28.80;;;;;;;12.62;60.28;99278.38;5064881;28;20057;-82
2021/11/04 12:55:41;;;;;;;50.70;28.90;;;;;;;12.90;60.30;99286.72;5073297;28;20052;-81